createdAt,value
2019-03-20T00:00:43.717Z,3.50
2019-03-20T00:03:12.862Z,3.40
2019-03-20T00:06:00.922Z,3.20
2019-03-20T00:08:29.772Z,3.30
2019-03-20T00:10:58.622Z,3.10
2019-03-20T00:13:27.568Z,3.00
2019-03-20T00:15:56.945Z,3.20
2019-03-20T00:18:26.167Z,3.20
2019-03-20T00:20:55.017Z,3.10
2019-03-20T00:23:24.022Z,3.10
2019-03-20T00:25:53.174Z,3.30
2019-03-20T00:28:22.462Z,3.40
2019-03-20T00:30:51.490Z,3.40
2019-03-20T00:33:20.497Z,3.40
2019-03-20T00:35:49.721Z,3.40
2019-03-20T00:38:18.981Z,3.50
2019-03-20T00:40:48.226Z,3.60
2019-03-20T00:43:17.146Z,3.50
2019-03-20T00:45:46.086Z,3.30
2019-03-20T00:48:14.997Z,3.10
2019-03-20T00:50:43.917Z,2.80
2019-03-20T00:53:12.777Z,2.70
2019-03-20T00:55:41.983Z,2.50
2019-03-20T00:58:10.902Z,2.30
2019-03-20T01:00:39.801Z,2.20
2019-03-20T01:03:08.753Z,2.20
2019-03-20T01:05:37.777Z,2.40
2019-03-20T01:08:06.923Z,2.50
2019-03-20T01:10:36.086Z,2.50
2019-03-20T01:13:05.648Z,2.60
2019-03-20T01:15:34.656Z,2.40
2019-03-20T01:18:03.747Z,2.40
2019-03-20T01:20:32.737Z,2.30
2019-03-20T01:23:02.029Z,2.20
2019-03-20T01:25:31.331Z,2.10
2019-03-20T01:28:00.627Z,2.20
2019-03-20T01:30:34.023Z,2.00
2019-03-20T01:33:04.611Z,1.90
2019-03-20T01:35:33.609Z,1.90
2019-03-20T01:38:02.742Z,1.80
2019-03-20T01:40:32.079Z,1.80
2019-03-20T01:43:01.133Z,1.70
2019-03-20T01:45:30.140Z,1.60
2019-03-20T01:47:59.155Z,1.80
2019-03-20T01:50:28.146Z,1.70
2019-03-20T01:52:57.153Z,1.60
2019-03-20T01:55:26.125Z,1.50
2019-03-20T01:57:55.136Z,1.40
2019-03-20T02:00:24.610Z,1.50
2019-03-20T02:02:53.566Z,1.40
2019-03-20T02:05:22.634Z,1.50
2019-03-20T02:07:52.002Z,1.50
2019-03-20T02:10:20.917Z,1.50
2019-03-20T02:12:49.922Z,1.40
2019-03-20T02:15:19.115Z,1.30
2019-03-20T02:17:48.122Z,1.20
2019-03-20T02:20:17.486Z,1.10
2019-03-20T02:22:46.490Z,1.10
2019-03-20T02:25:16.180Z,1.00
2019-03-20T02:27:45.178Z,0.90
2019-03-20T02:30:15.980Z,0.80
2019-03-20T02:32:45.064Z,0.80
2019-03-20T02:35:14.323Z,0.80
2019-03-20T02:37:43.740Z,0.90
2019-03-20T02:40:12.792Z,0.80
2019-03-20T02:42:41.726Z,0.80
2019-03-20T02:45:12.309Z,0.80
2019-03-20T02:47:41.242Z,0.80
2019-03-20T02:50:10.269Z,1.00
2019-03-20T02:52:39.778Z,0.90
2019-03-20T02:55:09.009Z,0.80
2019-03-20T02:57:38.161Z,0.90
2019-03-20T03:00:09.143Z,0.80
2019-03-20T03:02:38.231Z,0.80
2019-03-20T03:05:07.731Z,0.60
2019-03-20T03:07:37.142Z,0.50
2019-03-20T03:10:07.150Z,0.60
2019-03-20T03:12:36.025Z,0.60
2019-03-20T03:15:05.631Z,0.60
2019-03-20T03:17:34.660Z,0.50
2019-03-20T03:20:03.833Z,0.40
2019-03-20T03:22:32.683Z,0.40
2019-03-20T03:25:01.534Z,0.40
2019-03-20T03:27:30.848Z,0.50
2019-03-20T03:29:59.773Z,0.50
2019-03-20T03:32:28.621Z,0.50
2019-03-20T03:34:57.548Z,0.50
2019-03-20T03:37:26.412Z,0.40
2019-03-20T03:39:55.258Z,0.30
2019-03-20T03:42:24.759Z,0.40
2019-03-20T03:44:54.107Z,0.50
2019-03-20T03:47:23.632Z,0.60
2019-03-20T03:49:52.481Z,0.40
2019-03-20T03:52:21.326Z,0.30
2019-03-20T03:54:50.261Z,0.20
2019-03-20T03:57:19.316Z,0.20
2019-03-20T03:59:48.338Z,0.20
2019-03-20T04:02:17.244Z,0.20
2019-03-20T04:04:46.577Z,0.20
2019-03-20T04:07:15.546Z,0.20
2019-03-20T04:09:45.167Z,0.10
2019-03-20T04:12:14.558Z,0.20
2019-03-20T04:14:43.439Z,0.20
2019-03-20T04:17:23.589Z,0.20
2019-03-20T04:19:52.716Z,0.30
2019-03-20T04:22:21.724Z,0.10
2019-03-20T04:24:50.726Z,0.00
2019-03-20T04:27:19.706Z,0.00
2019-03-20T04:29:48.570Z,-0.10
2019-03-20T04:32:17.567Z,-0.20
2019-03-20T04:34:46.796Z,-0.20
2019-03-20T04:37:15.977Z,-0.20
2019-03-20T04:39:44.915Z,-0.20
2019-03-20T04:42:14.162Z,-0.20
2019-03-20T04:44:43.050Z,-0.20
2019-03-20T04:47:11.897Z,-0.20
2019-03-20T04:49:40.842Z,-0.30
2019-03-20T04:52:09.748Z,-0.40
2019-03-20T04:54:38.693Z,-0.50
2019-03-20T04:57:07.978Z,-0.50
2019-03-20T04:59:36.838Z,-0.40
2019-03-20T05:02:06.114Z,-0.40
2019-03-20T05:04:34.982Z,-0.50
2019-03-20T05:07:04.205Z,-0.40
2019-03-20T05:09:33.074Z,-0.50
2019-03-20T05:12:01.923Z,-0.50
2019-03-20T05:14:30.898Z,-0.50
2019-03-20T05:16:59.745Z,-0.30
2019-03-20T05:19:28.666Z,-0.10
2019-03-20T05:21:58.169Z,0.10
2019-03-20T05:24:27.275Z,0.10
2019-03-20T05:26:56.135Z,0.10
2019-03-20T05:29:25.349Z,0.00
2019-03-20T05:31:54.653Z,-0.10
2019-03-20T05:34:23.587Z,-0.30
2019-03-20T05:36:52.477Z,-0.40
2019-03-20T05:39:21.445Z,-0.50
2019-03-20T05:41:50.728Z,-0.50
2019-03-20T05:44:20.280Z,-0.50
2019-03-20T05:46:49.522Z,-0.50
2019-03-20T05:49:18.438Z,-0.50
2019-03-20T05:51:48.064Z,-0.50
2019-03-20T05:54:17.334Z,-0.50
2019-03-20T05:56:46.488Z,-0.50
2019-03-20T05:59:15.335Z,-0.60
2019-03-20T06:01:44.724Z,-0.40
2019-03-20T06:04:13.569Z,-0.20
2019-03-20T06:06:42.907Z,-0.10
2019-03-20T06:09:12.180Z,-0.20
2019-03-20T06:11:41.054Z,-0.30
2019-03-20T06:14:10.303Z,-0.40
2019-03-20T06:16:39.610Z,-0.40
2019-03-20T06:19:08.551Z,-0.20
2019-03-20T06:21:37.407Z,-0.10
2019-03-20T06:24:06.338Z,0.10
2019-03-20T06:26:35.187Z,0.30
2019-03-20T06:29:04.208Z,0.30
2019-03-20T06:31:33.140Z,0.20
2019-03-20T06:34:02.260Z,0.20
2019-03-20T06:36:31.465Z,0.20
2019-03-20T06:39:00.968Z,0.30
2019-03-20T06:41:29.849Z,0.50
2019-03-20T06:43:59.046Z,0.60
2019-03-20T06:46:27.978Z,0.60
2019-03-20T06:48:56.905Z,0.70
2019-03-20T06:51:25.845Z,0.90
2019-03-20T06:53:55.122Z,0.90
2019-03-20T06:56:24.058Z,1.10
2019-03-20T06:59:26.852Z,1.30
2019-03-20T07:01:55.899Z,1.30
2019-03-20T07:05:06.537Z,1.30
2019-03-20T07:07:44.072Z,1.30
2019-03-20T07:10:17.095Z,1.30
2019-03-20T07:12:46.041Z,1.40
2019-03-20T07:15:15.233Z,1.50
2019-03-20T07:17:44.081Z,1.60
2019-03-20T07:20:13.069Z,1.70
2019-03-20T07:22:41.947Z,1.80
2019-03-20T07:25:10.866Z,1.90
2019-03-20T07:27:39.732Z,2.00
2019-03-20T07:30:09.884Z,2.10
2019-03-20T07:32:39.011Z,2.20
2019-03-20T07:35:08.026Z,2.50
2019-03-20T07:37:37.020Z,2.60
2019-03-20T07:40:06.914Z,2.90
2019-03-20T07:42:35.771Z,3.10
2019-03-20T07:45:05.386Z,3.20
2019-03-20T07:47:34.737Z,3.30
2019-03-20T07:50:04.082Z,3.40
2019-03-20T07:52:33.262Z,3.50
2019-03-20T07:55:02.103Z,3.60
2019-03-20T07:57:31.338Z,3.80
2019-03-20T08:00:00.506Z,4.00
2019-03-20T08:02:29.358Z,4.20
2019-03-20T08:04:58.486Z,4.50
2019-03-20T08:07:27.343Z,4.70
2019-03-20T08:09:56.267Z,4.90
2019-03-20T08:12:25.466Z,5.10
2019-03-20T08:14:54.662Z,5.50
2019-03-20T08:17:23.870Z,6.50
2019-03-20T08:19:52.713Z,7.80
2019-03-20T08:22:21.846Z,8.90
2019-03-20T08:24:51.113Z,9.60
2019-03-20T08:27:20.051Z,10.60
2019-03-20T08:29:49.031Z,11.50
2019-03-20T08:32:18.042Z,12.30
2019-03-20T08:34:46.910Z,13.10
2019-03-20T08:37:15.825Z,13.50
2019-03-20T08:39:44.759Z,14.10
2019-03-20T08:42:13.612Z,14.30
2019-03-20T08:44:42.520Z,14.60
2019-03-20T08:47:12.140Z,15.20
2019-03-20T08:49:41.153Z,15.50
2019-03-20T08:52:10.074Z,16.40
2019-03-20T08:54:39.226Z,16.20
2019-03-20T08:57:08.335Z,16.60
2019-03-20T08:59:37.248Z,16.90
2019-03-20T09:02:06.226Z,16.90
2019-03-20T09:04:35.814Z,17.20
2019-03-20T09:07:05.166Z,17.50
2019-03-20T09:09:34.372Z,17.70
2019-03-20T09:12:03.613Z,17.40
2019-03-20T09:14:32.772Z,17.80
2019-03-20T09:17:02.372Z,17.90
2019-03-20T09:19:31.581Z,17.90
2019-03-20T09:22:00.813Z,18.50
2019-03-20T09:24:30.269Z,18.50
2019-03-20T09:26:59.560Z,18.40
2019-03-20T09:29:35.985Z,18.90
2019-03-20T09:31:59.936Z,18.80
2019-03-20T09:34:29.114Z,18.60
2019-03-20T09:36:58.315Z,18.80
2019-03-20T09:39:27.242Z,18.80
2019-03-20T09:41:56.164Z,19.30
2019-03-20T09:44:25.108Z,19.30
2019-03-20T09:46:54.098Z,18.90
2019-03-20T09:49:22.974Z,19.10
2019-03-20T09:51:52.207Z,19.20
2019-03-20T09:54:21.146Z,19.00
2019-03-20T09:56:50.292Z,19.40
2019-03-20T09:59:19.248Z,19.20
2019-03-20T10:01:48.527Z,19.70
2019-03-20T10:04:17.760Z,20.00
2019-03-20T10:06:47.359Z,19.80
2019-03-20T10:09:16.290Z,19.20
2019-03-20T10:11:45.635Z,19.30
2019-03-20T10:14:14.608Z,19.60
2019-03-20T10:16:43.558Z,20.00
2019-03-20T10:19:12.875Z,20.30
2019-03-20T10:21:41.993Z,20.10
2019-03-20T10:24:11.217Z,19.80
2019-03-20T10:26:40.176Z,20.30
2019-03-20T10:29:09.327Z,20.40
2019-03-20T10:31:38.557Z,20.40
2019-03-20T10:34:07.835Z,20.30
2019-03-20T10:36:37.023Z,20.40
2019-03-20T10:39:08.341Z,20.20
2019-03-20T10:41:37.444Z,20.70
2019-03-20T10:44:06.513Z,20.40
2019-03-20T10:46:35.541Z,20.30
2019-03-20T10:49:05.017Z,19.90
2019-03-20T10:51:34.198Z,20.00
2019-03-20T10:54:03.250Z,20.20
2019-03-20T10:56:32.413Z,20.10
2019-03-20T10:59:01.474Z,19.80
2019-03-20T11:01:41.872Z,20.00
2019-03-20T11:04:01.728Z,20.10
2019-03-20T11:06:30.709Z,19.60
2019-03-20T11:09:00.165Z,20.20
2019-03-20T11:11:29.217Z,20.10
2019-03-20T11:13:58.241Z,19.90
2019-03-20T11:16:27.974Z,19.70
2019-03-20T11:18:56.954Z,19.10
2019-03-20T11:21:26.278Z,19.00
2019-03-20T11:23:55.350Z,18.70
2019-03-20T11:26:24.581Z,18.50
2019-03-20T11:28:53.662Z,18.20
2019-03-20T11:31:23.004Z,18.80
2019-03-20T11:33:53.051Z,18.90
2019-03-20T11:36:22.019Z,19.00
2019-03-20T11:38:50.987Z,18.40
2019-03-20T11:41:20.334Z,18.70
2019-03-20T11:43:49.408Z,18.90
2019-03-20T11:46:18.377Z,18.70
2019-03-20T11:48:47.363Z,18.60
2019-03-20T11:51:16.436Z,18.60
2019-03-20T11:53:45.782Z,18.40
2019-03-20T11:56:14.946Z,18.20
2019-03-20T11:58:43.974Z,18.40
2019-03-20T12:01:13.391Z,18.30
2019-03-20T12:03:42.386Z,18.40
2019-03-20T12:06:11.881Z,18.20
2019-03-20T12:08:41.295Z,18.10
2019-03-20T12:11:10.354Z,17.70
2019-03-20T12:13:39.404Z,17.50
2019-03-20T12:16:08.774Z,17.30
2019-03-20T12:18:38.077Z,17.00
2019-03-20T12:21:07.595Z,17.10
2019-03-20T12:23:36.926Z,16.90
2019-03-20T12:26:05.897Z,16.80
2019-03-20T12:28:35.283Z,16.80
2019-03-20T12:31:06.616Z,16.50
2019-03-20T12:33:35.042Z,16.30
2019-03-20T12:36:04.411Z,16.20
2019-03-20T12:38:33.894Z,16.20
2019-03-20T12:41:02.941Z,16.20
2019-03-20T12:43:31.974Z,16.00
2019-03-20T12:46:00.970Z,16.00
2019-03-20T12:48:30.113Z,15.70
2019-03-20T12:50:59.709Z,15.60
2019-03-20T12:53:30.658Z,15.60
2019-03-20T12:56:00.454Z,15.60
2019-03-20T12:58:29.826Z,15.40
2019-03-20T13:00:58.953Z,15.40
2019-03-20T13:03:30.626Z,15.20
2019-03-20T13:05:59.059Z,15.00
2019-03-20T13:08:28.336Z,14.90
2019-03-20T13:10:57.794Z,14.60
2019-03-20T13:13:27.717Z,14.60
2019-03-20T13:15:56.798Z,14.50
2019-03-20T13:18:26.622Z,14.50
2019-03-20T13:20:56.192Z,14.40
2019-03-20T13:23:28.744Z,14.30
2019-03-20T13:25:58.241Z,14.20
2019-03-20T13:28:28.825Z,14.20
2019-03-20T13:31:01.217Z,14.10
2019-03-20T13:33:30.353Z,14.10
2019-03-20T13:35:59.814Z,14.00
2019-03-20T13:38:29.230Z,14.00
2019-03-20T13:40:58.990Z,13.90
2019-03-20T13:43:28.738Z,13.80
2019-03-20T13:45:57.851Z,13.80
2019-03-20T13:48:27.136Z,13.80
2019-03-20T13:50:56.286Z,13.60
2019-03-20T13:53:25.590Z,13.60
2019-03-20T13:55:55.045Z,13.60
2019-03-20T13:58:24.346Z,13.60
2019-03-20T14:00:53.381Z,13.50
2019-03-20T14:03:22.352Z,13.50
2019-03-20T14:05:51.285Z,13.50
2019-03-20T14:08:20.645Z,13.40
2019-03-20T14:10:50.671Z,13.40
2019-03-20T14:13:19.821Z,13.50
2019-03-20T14:15:49.454Z,13.30
2019-03-20T14:18:18.853Z,13.30
2019-03-20T14:20:47.858Z,13.30
2019-03-20T14:23:16.807Z,13.30
2019-03-20T14:25:45.867Z,13.30
2019-03-20T14:28:15.225Z,13.30
2019-03-20T14:30:44.290Z,13.20
2019-03-20T14:33:13.458Z,13.20
2019-03-20T14:35:42.453Z,13.30
2019-03-20T14:38:11.888Z,13.20
2019-03-20T14:40:40.920Z,13.30
2019-03-20T14:43:10.030Z,13.30
2019-03-20T14:45:39.101Z,13.30
2019-03-20T14:48:08.391Z,13.40
2019-03-20T14:50:37.437Z,13.40
2019-03-20T14:53:06.706Z,13.40
2019-03-20T14:55:35.695Z,13.40
2019-03-20T14:58:04.854Z,13.40
2019-03-20T15:00:34.306Z,13.50
2019-03-20T15:03:03.698Z,13.50
2019-03-20T15:05:32.754Z,13.40
2019-03-20T15:08:01.801Z,13.40
2019-03-20T15:10:30.977Z,13.40
2019-03-20T15:13:00.489Z,13.40
2019-03-20T15:15:34.313Z,13.40
2019-03-20T15:18:03.613Z,13.40
2019-03-20T15:20:33.000Z,13.30
2019-03-20T15:23:02.363Z,13.40
2019-03-20T15:25:31.438Z,13.40
2019-03-20T15:28:00.592Z,13.40
2019-03-20T15:30:29.874Z,13.40
2019-03-20T15:32:59.575Z,13.40
2019-03-20T15:35:28.702Z,13.40
2019-03-20T15:37:57.758Z,13.30
2019-03-20T15:40:26.907Z,13.30
2019-03-20T15:42:55.955Z,13.20
2019-03-20T15:45:25.157Z,13.20
2019-03-20T15:47:54.429Z,13.20
2019-03-20T15:50:23.902Z,13.20
2019-03-20T15:52:53.033Z,13.10
2019-03-20T15:55:24.978Z,13.20
2019-03-20T15:57:54.838Z,13.20
2019-03-20T16:00:24.278Z,13.20
2019-03-20T16:02:55.544Z,13.20
2019-03-20T16:05:25.070Z,13.20
2019-03-20T16:07:54.182Z,13.20
2019-03-20T16:10:23.902Z,13.10
2019-03-20T16:12:53.104Z,13.20
2019-03-20T16:15:22.635Z,13.10
2019-03-20T16:17:51.897Z,13.10
2019-03-20T16:20:21.246Z,13.00
2019-03-20T16:22:50.332Z,13.00
2019-03-20T16:25:19.747Z,12.90
2019-03-20T16:27:48.865Z,12.90
2019-03-20T16:30:19.553Z,12.90
2019-03-20T16:32:48.699Z,13.00
2019-03-20T16:35:18.474Z,12.80
2019-03-20T16:37:47.600Z,12.70
2019-03-20T16:40:18.922Z,12.70
2019-03-20T16:42:48.539Z,12.60
2019-03-20T16:45:20.001Z,12.60
2019-03-20T16:47:49.453Z,12.50
2019-03-20T16:50:18.605Z,12.50
2019-03-20T16:52:47.647Z,12.40
2019-03-20T16:55:16.811Z,12.30
2019-03-20T16:57:45.950Z,12.20
2019-03-20T17:00:20.665Z,12.10
2019-03-20T17:02:49.721Z,12.00
2019-03-20T17:05:19.502Z,12.00
2019-03-20T17:07:48.902Z,11.90
2019-03-20T17:10:23.836Z,11.90
2019-03-20T17:12:53.084Z,11.80
2019-03-20T17:15:23.366Z,11.70
2019-03-20T17:17:52.425Z,11.60
2019-03-20T17:20:21.893Z,11.50
2019-03-20T17:22:51.675Z,11.50
2019-03-20T17:25:20.974Z,11.40
2019-03-20T17:27:50.700Z,11.30
2019-03-20T17:30:22.331Z,11.30
2019-03-20T17:32:51.286Z,11.30
2019-03-20T17:35:20.472Z,11.20
2019-03-20T17:37:49.494Z,11.20
2019-03-20T17:40:19.342Z,11.10
2019-03-20T17:42:48.442Z,11.10
2019-03-20T17:45:19.277Z,11.00
2019-03-20T17:47:48.560Z,10.90
2019-03-20T17:50:20.370Z,10.80
2019-03-20T17:52:49.485Z,10.70
2019-03-20T17:55:18.559Z,10.60
2019-03-20T17:57:47.654Z,10.50
2019-03-20T18:00:30.682Z,10.40
2019-03-20T18:02:59.779Z,10.30
2019-03-20T18:05:28.834Z,10.30
2019-03-20T18:07:57.857Z,10.20
2019-03-20T18:10:26.999Z,10.10
2019-03-20T18:12:56.881Z,10.10
2019-03-20T18:15:26.009Z,10.00
2019-03-20T18:17:54.953Z,9.90
2019-03-20T18:20:23.956Z,9.80
2019-03-20T18:22:52.975Z,9.70
2019-03-20T18:25:22.019Z,9.50
2019-03-20T18:27:51.062Z,9.40
2019-03-20T18:30:21.516Z,9.30
2019-03-20T18:32:50.554Z,9.30
2019-03-20T18:35:19.692Z,9.20
2019-03-20T18:37:48.914Z,9.10
2019-03-20T18:40:18.278Z,9.00
2019-03-20T18:42:47.366Z,8.90
2019-03-20T18:45:17.937Z,8.80
2019-03-20T18:47:47.648Z,8.70
2019-03-20T18:50:17.518Z,8.60
2019-03-20T18:52:46.950Z,8.50
2019-03-20T18:55:16.582Z,8.50
2019-03-20T18:57:45.956Z,8.30
2019-03-20T19:00:17.268Z,8.20
2019-03-20T19:02:46.605Z,8.10
2019-03-20T19:05:21.957Z,7.90
2019-03-20T19:07:51.677Z,7.90
2019-03-20T19:10:20.798Z,7.90
2019-03-20T19:12:50.019Z,7.80
2019-03-20T19:15:19.086Z,7.80
2019-03-20T19:17:48.242Z,7.80
2019-03-20T19:20:18.953Z,7.80
2019-03-20T19:22:48.407Z,7.70
2019-03-20T19:25:17.513Z,7.50
2019-03-20T19:27:46.906Z,7.50
2019-03-20T19:30:18.166Z,7.50
2019-03-20T19:32:47.942Z,7.40
2019-03-20T19:35:17.242Z,7.30
2019-03-20T19:37:46.224Z,7.30
2019-03-20T19:40:15.365Z,7.20
2019-03-20T19:42:44.373Z,7.00
2019-03-20T19:45:13.931Z,6.90
2019-03-20T19:47:42.911Z,6.80
2019-03-20T19:50:13.265Z,6.70
2019-03-20T19:52:42.453Z,6.70
2019-03-20T19:55:12.253Z,6.50
2019-03-20T19:57:41.559Z,6.50
2019-03-20T20:00:13.455Z,6.40
2019-03-20T20:02:43.234Z,6.20
2019-03-20T20:05:15.999Z,6.10
2019-03-20T20:07:43.217Z,6.10
2019-03-20T20:10:12.984Z,6.00
2019-03-20T20:12:41.978Z,6.00
2019-03-20T20:15:13.954Z,5.80
2019-03-20T20:17:42.874Z,5.90
2019-03-20T20:20:14.002Z,5.80
2019-03-20T20:22:45.279Z,5.70
2019-03-20T20:25:14.801Z,5.60
2019-03-20T20:27:44.120Z,5.60
2019-03-20T20:30:15.042Z,5.60
2019-03-20T20:32:43.882Z,5.50
2019-03-20T20:35:13.259Z,5.60
2019-03-20T20:37:42.683Z,5.50
2019-03-20T20:40:14.041Z,5.50
2019-03-20T20:42:43.482Z,5.70
2019-03-20T20:45:13.778Z,5.80
2019-03-20T20:47:42.714Z,5.80
2019-03-20T20:50:12.285Z,5.80
2019-03-20T20:52:41.211Z,5.80
2019-03-20T20:55:11.658Z,5.90
2019-03-20T20:57:40.987Z,6.20
2019-03-20T21:00:18.046Z,6.20
2019-03-20T21:02:47.747Z,6.20
2019-03-20T21:05:16.735Z,6.20
2019-03-20T21:07:46.449Z,6.50
2019-03-20T21:10:15.819Z,6.70
2019-03-20T21:12:55.689Z,6.70
2019-03-20T21:15:39.657Z,6.70
2019-03-20T21:18:34.438Z,6.60
2019-03-20T21:21:04.354Z,6.50
2019-03-20T21:23:53.509Z,6.50
2019-03-20T21:26:23.238Z,6.50
2019-03-20T21:29:18.666Z,6.60
2019-03-20T21:31:52.720Z,6.60
2019-03-20T21:34:59.266Z,6.70
2019-03-20T21:38:03.314Z,6.70
2019-03-20T21:40:46.685Z,6.60
2019-03-20T21:43:57.114Z,6.60
2019-03-20T21:47:13.508Z,6.60
2019-03-20T21:49:43.154Z,6.70
2019-03-20T21:52:12.637Z,6.70
2019-03-20T21:55:28.908Z,6.70
2019-03-20T21:58:06.017Z,6.70
2019-03-20T22:01:20.830Z,6.60
2019-03-20T22:03:50.531Z,6.40
2019-03-20T22:07:02.692Z,6.30
2019-03-20T22:10:15.658Z,6.20
2019-03-20T22:13:38.166Z,6.00
2019-03-20T22:16:43.577Z,6.00
2019-03-20T22:19:30.041Z,6.00
2019-03-20T22:22:36.342Z,6.00
2019-03-20T22:25:37.629Z,6.20
2019-03-20T22:28:41.038Z,6.30
2019-03-20T22:31:10.440Z,6.40
2019-03-20T22:34:15.674Z,6.50
2019-03-20T22:36:45.149Z,6.60
2019-03-20T22:39:54.282Z,6.60
2019-03-20T22:42:32.101Z,6.50
2019-03-20T22:45:45.280Z,6.50
2019-03-20T22:48:39.092Z,6.50
2019-03-20T22:51:35.771Z,6.50
2019-03-20T22:54:21.816Z,6.50
2019-03-20T22:57:41.198Z,6.50
2019-03-20T23:00:11.366Z,6.40
2019-03-20T23:02:59.750Z,6.30
2019-03-20T23:05:30.286Z,6.30
2019-03-20T23:08:00.294Z,6.30
2019-03-20T23:10:30.011Z,6.30
2019-03-20T23:12:59.466Z,6.30
2019-03-20T23:15:28.848Z,6.30
2019-03-20T23:17:58.234Z,6.30
2019-03-20T23:20:27.830Z,6.20
2019-03-20T23:22:57.210Z,6.20
2019-03-20T23:25:26.933Z,6.20
2019-03-20T23:27:56.646Z,6.10
2019-03-20T23:30:26.685Z,5.90
2019-03-20T23:32:56.179Z,5.90
2019-03-20T23:35:25.561Z,5.90
2019-03-20T23:37:55.061Z,5.80
2019-03-20T23:40:24.510Z,5.80
2019-03-20T23:42:54.290Z,5.80
2019-03-20T23:45:23.826Z,5.80
2019-03-20T23:48:12.014Z,5.80
2019-03-20T23:50:41.858Z,5.70
2019-03-20T23:53:11.369Z,5.70
2019-03-20T23:55:41.066Z,5.70
2019-03-20T23:58:10.774Z,5.60
